Time;durP1;ratioP1;P1;durP2;ratioP2;P2;SDS_P1;SDS_P2;PMS_P1;PMS_P2;Temp;Humidity;BMP_temperature;BMP_pressure;BME280_temperature;BME280_humidity;BME280_pressure;Samples;Min_cycle;Max_cycle;Signal;HPM_P1;HPM_P2
2024/02/14 00:02:04;;;;;;;;;30.00;27.40;;;;;10.23;100.00;99250.97;6264902;28;96343;-59
2024/02/14 00:05:10;;;;;;;;;30.75;28.00;;;;;10.21;100.00;99252.22;6265099;27;96719;-59
2024/02/14 00:08:14;;;;;;;;;37.25;32.00;;;;;10.21;100.00;99247.66;6265918;28;96384;-59
2024/02/14 00:11:18;;;;;;;;;35.50;30.00;;;;;10.21;100.00;99244.97;6264963;27;96358;-58
2024/02/14 00:14:21;;;;;;;;;35.00;30.40;;;;;10.20;100.00;99253.25;6263517;28;98176;-60
2024/02/14 00:17:25;;;;;;;;;38.25;32.00;;;;;10.18;100.00;99252.63;6263469;28;98446;-60
2024/02/14 00:20:29;;;;;;;;;44.00;35.00;;;;;10.07;100.00;99264.03;6259290;27;96239;-58
2024/02/14 00:23:35;;;;;;;;;43.00;35.00;;;;;10.02;100.00;99261.16;6240359;27;96855;-58
2024/02/14 00:26:39;;;;;;;;;40.00;33.00;;;;;9.97;100.00;99253.66;6241102;28;96336;-58
2024/02/14 00:29:44;;;;;;;;;42.00;35.50;;;;;9.95;100.00;99267.34;6241059;27;96389;-58
2024/02/14 00:32:48;;;;;;;;;39.50;34.00;;;;;9.93;100.00;99269.41;6239991;28;96459;-58
2024/02/14 00:35:52;;;;;;;;;38.00;33.00;;;;;9.82;100.00;99261.94;6239282;28;98374;-58
2024/02/14 00:38:56;;;;;;;;;44.50;35.00;;;;;9.87;100.00;99272.94;6240616;27;96580;-58
2024/02/14 00:41:59;;;;;;;;;44.60;35.60;;;;;9.82;100.00;99277.31;6240772;27;96896;-58
2024/02/14 00:45:03;;;;;;;;;40.80;34.80;;;;;9.81;100.00;99279.16;6238988;28;98380;-58
2024/02/14 00:48:08;;;;;;;;;43.60;35.60;;;;;9.76;100.00;99273.56;6240237;28;96473;-58
2024/02/14 00:51:13;;;;;;;;;40.00;33.00;;;;;9.70;100.00;99277.09;6239778;28;96363;-57
2024/02/14 00:54:16;;;;;;;;;45.00;35.25;;;;;9.71;100.00;99276.06;6240447;28;96304;-57
2024/02/14 00:57:19;;;;;;;;;44.00;34.20;;;;;9.72;100.00;99276.91;6240803;27;96857;-57
2024/02/14 01:00:23;;;;;;;;;43.25;36.00;;;;;9.73;100.00;99281.22;6240329;28;96603;-57
2024/02/14 01:03:26;;;;;;;;;47.40;37.40;;;;;9.75;100.00;99287.25;6249573;27;96323;-57
2024/02/14 01:06:32;;;;;;;;;47.00;36.00;;;;;9.75;100.00;99281.84;6249663;27;96265;-57
2024/02/14 01:09:36;;;;;;;;;47.00;38.00;;;;;9.75;100.00;99281.84;6265755;27;96269;-57
2024/02/14 01:12:39;;;;;;;;;42.40;35.00;;;;;9.77;100.00;99283.31;6252379;27;96375;-57
2024/02/14 01:15:43;;;;;;;;;44.60;35.60;;;;;9.79;100.00;99285.78;6240284;28;96573;-57
2024/02/14 01:18:46;;;;;;;;;45.00;35.60;;;;;9.80;100.00;99288.28;6240013;28;96422;-57
2024/02/14 01:21:51;;;;;;;;;44.40;35.00;;;;;9.77;100.00;99285.19;6240769;28;96200;-57
2024/02/14 01:24:54;;;;;;;;;44.60;36.40;;;;;9.76;100.00;99288.91;6255310;27;96322;-58
2024/02/14 01:27:57;;;;;;;;;42.40;35.20;;;;;9.70;100.00;99285.16;6244202;27;96608;-57
2024/02/14 01:31:00;;;;;;;;;47.00;38.00;;;;;9.70;100.00;99287.84;6271751;27;96836;-59
2024/02/14 01:34:04;;;;;;;;;47.00;38.00;;;;;9.64;100.00;99280.59;6276471;27;96554;-57
2024/02/14 01:37:09;;;;;;;;;45.00;35.00;;;;;9.68;100.00;99289.91;6265199;28;96339;-57
2024/02/14 01:40:13;;;;;;;;;42.00;35.00;;;;;9.61;100.00;99280.19;6256151;27;96448;-57
2024/02/14 01:43:31;;;;;;;;;44.20;36.80;;;;;9.68;100.00;99281.84;6289059;27;124886;-58
2024/02/14 01:46:34;;;;;;;;;47.33;36.33;;;;;9.74;100.00;99285.56;6273862;27;96390;-57
2024/02/14 01:49:38;;;;;;;;;45.00;36.60;;;;;9.72;100.00;99284.97;6273051;27;98065;-57
2024/02/14 01:52:44;;;;;;;;;43.75;36.25;;;;;9.68;100.00;99284.53;6292230;27;96305;-60
2024/02/14 01:55:47;;;;;;;;;50.00;38.00;;;;;9.68;100.00;99281.84;6280839;27;96318;-58
2024/02/14 01:58:50;;;;;;;;;47.80;38.00;;;;;9.69;100.00;99274.59;6291600;27;96181;-58
2024/02/14 02:01:53;;;;;;;;;45.25;35.75;;;;;9.64;100.00;99275.22;6292247;27;96283;-58
2024/02/14 02:04:57;;;;;;;;;45.25;36.25;;;;;9.60;100.00;99275.84;6242256;28;96673;-59
2024/02/14 02:08:02;;;;;;;;;46.75;37.25;;;;;9.54;100.00;99278.31;6267220;28;96902;-58
2024/02/14 02:11:06;;;;;;;;;48.40;38.40;;;;;9.52;100.00;99276.88;6265792;28;96362;-58
2024/02/14 02:14:29;;;;;;;;;50.00;39.20;;;;;9.48;100.00;99268.34;6266710;28;96411;-59
2024/02/14 02:17:53;;;;;;;;;46.00;38.00;;;;;9.43;100.00;99270.03;6257633;27;96321;-59
2024/02/14 02:21:19;;;;;;;;;44.60;36.00;;;;;9.35;100.00;99280.97;6272143;27;96254;-59
2024/02/14 02:24:24;;;;;;;;;47.25;39.50;;;;;9.29;100.00;99284.47;6292776;27;96457;-58
2024/02/14 02:27:27;;;;;;;;;46.33;37.00;;;;;9.23;100.00;99280.75;6290388;27;96468;-59
2024/02/14 02:30:52;;;;;;;;;48.00;38.00;;;;;9.19;100.00;99281.38;6266684;28;96198;-58
2024/02/14 02:33:57;;;;;;;;;47.80;38.40;;;;;9.17;100.00;99281.56;6267484;27;98576;-59
2024/02/14 02:37:00;;;;;;;;;47.00;39.00;;;;;9.18;100.00;99282.41;6274230;27;96229;-58
2024/02/14 02:40:24;;;;;;;;;47.40;38.00;;;;;9.20;100.00;99285.69;6292430;27;96122;-58
2024/02/14 02:43:49;;;;;;;;;50.00;38.75;;;;;9.05;100.00;99257.09;6284213;27;96173;-59
2024/02/14 02:47:24;;;;;;;;;45.40;38.00;;;;;9.22;100.00;99286.34;6290552;27;96407;-58
2024/02/14 02:50:49;;;;;;;;;49.00;39.00;;;;;9.20;100.00;99283.00;6291160;27;96244;-58
2024/02/14 02:54:11;;;;;;;;;44.80;36.00;;;;;9.25;100.00;99289.44;6292496;27;96226;-58
2024/02/14 02:57:36;;;;;;;;;47.00;38.00;;;;;9.23;100.00;99288.00;6292114;27;96189;-60
2024/02/14 03:00:40;;;;;;;;;50.50;39.00;;;;;9.17;100.00;99280.72;6292273;27;96356;-60
2024/02/14 03:03:55;;;;;;;;;47.60;39.00;;;;;9.24;100.00;99295.00;6276171;27;96237;-59
2024/02/14 03:07:19;;;;;;;;;50.00;39.00;;;;;9.07;100.00;99259.59;6260778;27;96436;-59
2024/02/14 03:10:42;;;;;;;;;50.00;39.80;;;;;9.19;100.00;99292.13;6252959;27;96812;-60
2024/02/14 03:14:07;;;;;;;;;47.00;39.00;;;;;9.24;100.00;99303.09;6270631;27;96205;-60
2024/02/14 03:17:31;;;;;;;;;47.00;39.00;;;;;9.20;100.00;99291.91;6251536;28;96211;-59
2024/02/14 03:20:35;;;;;;;;;48.80;39.60;;;;;9.29;100.00;99301.44;6248755;28;96362;-59
2024/02/14 03:23:39;;;;;;;;;48.00;39.60;;;;;9.31;100.00;99304.78;6285476;27;96328;-58
2024/02/14 03:26:43;;;;;;;;;47.00;37.40;;;;;9.33;100.00;99305.41;6291709;27;96358;-59
2024/02/14 03:29:47;;;;;;;;;47.00;38.50;;;;;9.28;100.00;99298.97;6291152;27;96344;-59
2024/02/14 03:32:52;;;;;;;;;47.80;40.00;;;;;9.39;100.00;99314.50;6289281;27;96354;-58
2024/02/14 03:35:55;;;;;;;;;47.00;39.00;;;;;9.39;100.00;99319.88;6267941;27;96653;-59
2024/02/14 03:39:00;;;;;;;;;50.00;40.00;;;;;9.24;100.00;99287.78;6265901;28;96310;-58
2024/02/14 03:42:07;;;;;;;;;46.20;39.00;;;;;9.38;100.00;99308.28;6253998;27;96339;-56
2024/02/14 03:45:12;;;;;;;;;45.50;37.50;;;;;9.39;100.00;99318.03;6288471;27;96279;-59
2024/02/14 03:48:15;;;;;;;;;48.00;39.00;;;;;9.40;100.00;99314.31;6269738;27;96302;-58
2024/02/14 03:51:19;;;;;;;;;46.00;38.00;;;;;9.37;100.00;99308.53;6266635;27;96373;-54
2024/02/14 03:54:23;;;;;;;;;47.50;38.25;;;;;9.27;100.00;99284.69;6259785;27;96357;-54
2024/02/14 03:57:28;;;;;;;;;44.80;35.60;;;;;9.47;100.00;99311.66;6221426;27;96517;-54
2024/02/14 04:00:35;;;;;;;;;44.80;36.80;;;;;9.31;100.00;99285.94;6241748;27;96449;-53
2024/02/14 04:03:38;;;;;;;;;45.00;36.00;;;;;9.48;100.00;99318.69;6240911;28;96381;-53
2024/02/14 04:06:42;;;;;;;;;38.00;32.00;;;;;9.46;100.00;99312.69;6241038;28;96596;-54
2024/02/14 04:09:45;;;;;;;;;37.00;32.00;;;;;9.50;100.00;99322.81;6241227;28;96973;-54
2024/02/14 04:12:49;;;;;;;;;36.40;31.60;;;;;9.51;100.00;99315.59;6240960;28;96569;-54
2024/02/14 04:15:53;;;;;;;;;35.00;31.00;;;;;9.50;100.00;99312.06;6241487;27;96241;-53
2024/02/14 04:19:02;;;;;;;;;34.60;30.00;;;;;9.30;100.00;99286.13;6241341;28;96335;-54
2024/02/14 04:22:05;;;;;;;;;37.40;31.80;;;;;9.48;100.00;99319.50;6240998;27;96218;-53
2024/02/14 04:25:09;;;;;;;;;34.75;31.50;;;;;9.48;100.00;99332.16;6235795;28;96400;-54
2024/02/14 04:28:12;;;;;;;;;38.40;33.00;;;;;9.47;100.00;99334.00;6234751;28;96348;-54
2024/02/14 04:31:17;;;;;;;;;34.40;30.60;;;;;9.48;100.00;99332.16;6240921;28;97026;-54
2024/02/14 04:34:38;;;;;;;;;35.60;32.40;;;;;9.49;100.00;99337.31;6236507;28;97011;-53
2024/02/14 04:37:46;;;;;;;;;39.00;33.00;;;;;9.48;100.00;99327.56;6234350;28;96308;-54
2024/02/14 04:40:49;;;;;;;;;38.40;31.60;;;;;9.48;100.00;99329.47;6240609;28;97016;-55
2024/02/14 04:43:52;;;;;;;;;33.25;30.00;;;;;9.45;100.00;99330.69;6240877;28;96321;-54
2024/02/14 04:46:58;;;;;;;;;33.20;29.00;;;;;9.35;100.00;99318.66;6234689;28;96572;-54
2024/02/14 04:50:03;;;;;;;;;34.00;30.00;;;;;9.43;100.00;99338.13;6225477;28;96084;-55
2024/02/14 04:53:07;;;;;;;;;35.00;31.00;;;;;9.42;100.00;99330.25;6221659;28;96486;-54
2024/02/14 04:56:11;;;;;;;;;30.60;28.00;;;;;9.40;100.00;99330.47;6210742;28;96343;-54
2024/02/14 04:59:14;;;;;;;;;33.00;29.00;;;;;9.37;100.00;99333.56;6217609;28;96920;-53
2024/02/14 05:02:18;;;;;;;;;29.40;26.40;;;;;9.35;100.00;99329.41;6220720;27;96310;-58
2024/02/14 05:05:22;;;;;;;;;29.00;27.00;;;;;9.33;100.00;99326.09;6237437;27;96861;-57
2024/02/14 05:08:30;;;;;;;;;33.80;30.00;;;;;9.29;100.00;99324.81;6231638;27;96771;-58
2024/02/14 05:11:33;;;;;;;;;32.40;29.80;;;;;9.26;100.00;99336.84;6224014;28;98238;-57
2024/02/14 05:14:40;;;;;;;;;29.60;28.60;;;;;9.24;100.00;99330.81;6245274;27;96691;-58
2024/02/14 05:17:45;;;;;;;;;27.60;25.00;;;;;9.25;100.00;99337.03;6249353;27;96320;-57
2024/02/14 05:20:49;;;;;;;;;24.60;20.60;;;;;9.24;100.00;99344.28;6220339;28;97594;-58
2024/02/14 05:23:52;;;;;;;;;23.60;21.60;;;;;9.26;100.00;99346.78;6237648;28;96423;-58
2024/02/14 05:26:56;;;;;;;;;22.00;19.75;;;;;9.23;100.00;99342.63;6239511;28;96499;-58
2024/02/14 05:29:59;;;;;;;;;22.00;20.00;;;;;9.10;100.00;99321.06;6239515;28;96536;-58
2024/02/14 05:33:04;;;;;;;;;23.50;21.50;;;;;9.26;100.00;99350.28;6252761;27;96408;-57
2024/02/14 05:36:08;;;;;;;;;24.00;22.00;;;;;9.25;100.00;99350.47;6220581;28;96395;-58
2024/02/14 05:39:11;;;;;;;;;17.80;16.80;;;;;9.11;100.00;99322.72;6236748;27;96738;-58
2024/02/14 05:42:15;;;;;;;;;22.80;21.80;;;;;9.19;100.00;99354.81;6235582;28;96460;-57
2024/02/14 05:45:19;;;;;;;;;29.00;25.50;;;;;9.17;100.00;99350.69;6234759;28;96430;-57
2024/02/14 05:48:23;;;;;;;;;25.40;24.00;;;;;9.13;100.00;99353.78;6236353;27;96301;-58
2024/02/14 05:51:27;;;;;;;;;24.00;21.00;;;;;9.14;100.00;99357.28;6255721;27;96462;-58
2024/02/14 05:54:30;;;;;;;;;24.80;21.00;;;;;9.09;100.00;99351.66;6261644;27;96285;-58
2024/02/14 05:57:34;;;;;;;;;27.00;23.40;;;;;9.10;100.00;99364.09;6260577;27;96277;-58
2024/02/14 06:00:37;;;;;;;;;34.00;27.00;;;;;9.09;100.00;99362.41;6261242;27;96573;-57
2024/02/14 06:03:43;;;;;;;;;25.67;24.00;;;;;9.10;100.00;99364.91;6261178;27;97206;-57
2024/02/14 06:06:47;;;;;;;;;24.00;22.60;;;;;9.11;100.00;99363.06;6243331;27;96569;-58
2024/02/14 06:09:50;;;;;;;;;21.75;20.50;;;;;9.10;100.00;99364.09;6242428;27;98365;-58
2024/02/14 06:12:53;;;;;;;;;24.00;22.00;;;;;9.04;100.00;99367.59;6275657;27;96524;-58
2024/02/14 06:15:56;;;;;;;;;24.80;22.00;;;;;9.09;100.00;99367.81;6289236;27;96732;-58
2024/02/14 06:19:04;;;;;;;;;24.60;21.20;;;;;9.15;100.00;99367.00;6288647;27;96357;-58
2024/02/14 06:22:07;;;;;;;;;22.00;20.00;;;;;9.20;100.00;99367.22;6289684;27;96384;-59
2024/02/14 06:25:11;;;;;;;;;22.60;20.00;;;;;9.25;100.00;99367.47;6274140;27;96406;-59
2024/02/14 06:28:28;;;;;;;;;24.50;20.00;;;;;9.30;100.00;99378.44;6292169;27;96252;-58
2024/02/14 06:31:31;;;;;;;;;23.40;21.00;;;;;9.36;100.00;99374.97;6291724;27;96129;-59
2024/02/14 06:34:36;;;;;;;;;23.40;20.00;;;;;9.42;100.00;99378.72;6291742;27;96249;-59
2024/02/14 06:37:39;;;;;;;;;24.40;20.40;;;;;9.48;100.00;99378.72;6274046;27;97159;-59
2024/02/14 06:40:55;;;;;;;;;22.50;19.50;;;;;9.54;100.00;99377.91;6293371;27;96356;-59
2024/02/14 06:43:58;;;;;;;;;18.00;17.00;;;;;9.63;100.00;99381.22;6292622;27;96332;-60
2024/02/14 06:47:01;;;;;;;;;16.00;15.20;;;;;10.04;100.00;99373.03;6292168;27;96196;-60
2024/02/14 06:50:08;;;;;;;;;19.25;16.00;;;;;10.35;100.00;99380.53;6292475;27;96357;-60
2024/02/14 06:53:13;;;;;;;;;19.40;15.60;;;;;10.56;100.00;99382.13;6292421;27;96319;-59
2024/02/14 06:56:17;;;;;;;;;18.50;17.50;;;;;11.45;100.00;99372.31;6275373;27;96955;-58
2024/02/14 06:59:20;;;;;;;;;18.00;16.00;;;;;12.49;100.00;99379.94;6266673;27;96955;-58
2024/02/14 07:02:23;;;;;;;;;18.00;17.60;;;;;12.94;100.00;99372.41;6263322;27;96373;-59
2024/02/14 07:05:29;;;;;;;;;19.00;17.00;;;;;13.11;100.00;99373.47;6265676;27;98958;-59
2024/02/14 07:08:32;;;;;;;;;21.00;19.00;;;;;13.35;100.00;99379.84;6251949;28;96365;-60
2024/02/14 07:11:37;;;;;;;;;21.00;19.00;;;;;13.61;100.00;99384.94;6267115;27;96223;-60
2024/02/14 07:14:41;;;;;;;;;19.00;18.00;;;;;13.94;100.00;99394.47;6266861;28;96480;-60
2024/02/14 07:17:44;;;;;;;;;18.00;17.00;;;;;14.37;100.00;99405.91;6240148;28;96186;-60
2024/02/14 07:20:49;;;;;;;;;18.00;16.00;;;;;15.01;100.00;99398.75;6265107;27;97019;-60
2024/02/14 07:23:53;;;;;;;;;23.40;21.40;;;;;15.93;100.00;99394.16;6254966;27;96399;-58
2024/02/14 07:26:57;;;;;;;;;21.00;19.75;;;;;16.73;99.37;99399.31;6250266;27;96471;-58
2024/02/14 07:30:00;;;;;;;;;15.00;14.00;;;;;17.37;93.32;99391.50;6237477;28;96379;-58
2024/02/14 07:33:06;;;;;;;;;17.00;16.00;;;;;17.93;90.73;99388.38;6218715;28;96428;-58
2024/02/14 07:36:10;;;;;;;;;16.00;15.00;;;;;19.86;84.71;99390.47;6239050;27;96502;-58
2024/02/14 07:39:14;;;;;;;;;17.00;15.75;;;;;22.94;70.66;99387.78;6236965;27;96523;-58
2024/02/14 07:42:17;;;;;;;;;17.60;15.40;;;;;26.00;58.57;99379.53;6235498;27;96081;-58
2024/02/14 07:45:20;;;;;;;;;18.00;18.00;;;;;28.88;50.17;99394.72;6235195;27;98141;-57
2024/02/14 07:48:24;;;;;;;;;17.75;16.00;;;;;30.63;43.38;99379.19;6260174;27;96463;-58
2024/02/14 07:51:30;;;;;;;;;17.25;15.50;;;;;32.38;39.02;99385.44;6240540;27;96763;-58
2024/02/14 07:54:33;;;;;;;;;19.00;17.00;;;;;33.87;35.44;99381.03;6234349;28;96451;-58
2024/02/14 07:57:36;;;;;;;;;17.60;16.60;;;;;35.23;33.19;99385.47;6247030;27;96435;-57
2024/02/14 08:00:39;;;;;;;;;19.00;18.00;;;;;36.43;32.06;99387.34;6224625;27;97330;-57
2024/02/14 08:03:42;;;;;;;;;18.00;16.80;;;;;37.09;29.68;99385.75;6227229;28;96679;-58
2024/02/14 08:06:49;;;;;;;;;20.00;17.75;;;;;37.56;29.52;99377.34;6230537;28;97070;-56
2024/02/14 08:09:52;;;;;;;;;20.00;18.00;;;;;37.44;27.92;99382.41;6216780;28;96350;-57
2024/02/14 08:12:55;;;;;;;;;20.00;18.20;;;;;37.63;28.60;99376.59;6213987;28;96528;-57
2024/02/14 08:15:59;;;;;;;;;22.00;21.60;;;;;37.89;28.51;99384.00;6225559;28;97001;-57
2024/02/14 08:19:02;;;;;;;;;25.00;21.50;;;;;38.42;27.36;99373.84;6210448;28;97140;-57
2024/02/14 08:22:08;;;;;;;;;17.75;17.00;;;;;39.11;26.25;99379.31;6211434;28;96303;-58
2024/02/14 08:25:12;;;;;;;;;15.00;14.00;;;;;39.94;24.63;99372.47;6211676;28;97405;-57
2024/02/14 08:28:17;;;;;;;;;10.50;10.00;;;;;40.75;23.38;99360.91;6211324;28;96530;-57
2024/02/14 08:31:21;;;;;;;;;10.25;10.00;;;;;41.48;22.09;99358.00;6211510;28;96518;-58
2024/02/14 08:34:25;;;;;;;;;9.75;8.75;;;;;42.00;21.49;99355.06;6215068;28;96238;-55
2024/02/14 08:37:29;;;;;;;;;10.00;10.00;;;;;42.59;21.31;99367.72;6218823;28;96931;-55
2024/02/14 08:40:33;;;;;;;;;9.00;8.00;;;;;43.10;20.64;99354.47;6215050;28;96396;-55
2024/02/14 08:43:36;;;;;;;;;9.00;8.00;;;;;43.47;20.09;99353.47;6215615;28;96861;-55
2024/02/14 08:46:42;;;;;;;;;7.40;6.40;;;;;43.75;19.68;99360.66;6219617;28;96494;-55
2024/02/14 08:49:45;;;;;;;;;8.00;7.80;;;;;43.81;19.88;99356.09;6217485;28;97622;-56
2024/02/14 08:52:49;;;;;;;;;6.75;6.00;;;;;43.87;18.89;99358.03;6217726;28;96339;-55
2024/02/14 08:55:53;;;;;;;;;6.00;6.00;;;;;43.93;18.70;99364.81;6217513;28;96371;-55
2024/02/14 08:58:56;;;;;;;;;6.00;6.00;;;;;43.99;19.35;99359.41;6217910;28;96285;-54
2024/02/14 09:01:59;;;;;;;;;4.00;4.00;;;;;43.95;18.32;99356.66;6219298;28;96321;-53
2024/02/14 09:05:04;;;;;;;;;6.00;6.00;;;;;44.25;18.57;99357.69;6231119;28;98894;-54
2024/02/14 09:08:09;;;;;;;;;5.40;5.40;;;;;44.47;18.11;99355.22;6243686;28;96859;-54
2024/02/14 09:11:12;;;;;;;;;5.00;4.00;;;;;44.82;18.11;99360.94;6244263;28;96406;-55
2024/02/14 09:14:16;;;;;;;;;4.00;4.00;;;;;45.12;17.47;99359.03;6243907;28;96318;-54
2024/02/14 09:17:19;;;;;;;;;4.80;4.80;;;;;45.58;17.63;99350.19;6255499;27;96359;-54
2024/02/14 09:20:22;;;;;;;;;4.00;4.00;;;;;46.08;16.57;99341.09;6237886;28;96739;-54
2024/02/14 09:23:27;;;;;;;;;4.40;3.40;;;;;45.40;16.14;99335.59;6243898;28;96308;-55
2024/02/14 09:26:30;;;;;;;;;3.00;3.00;;;;;43.70;16.89;99342.09;6243360;28;96259;-54
2024/02/14 09:29:34;;;;;;;;;4.00;3.50;;;;;43.31;16.96;99339.13;6263531;27;96372;-54
2024/02/14 09:32:38;;;;;;;;;4.00;3.40;;;;;43.50;16.88;99339.19;6251472;27;96183;-54
2024/02/14 09:35:44;;;;;;;;;3.60;3.60;;;;;44.29;16.87;99336.50;6242915;28;96853;-56
2024/02/14 09:38:49;;;;;;;;;3.00;3.00;;;;;44.95;16.73;99346.84;6241697;27;96676;-56
2024/02/14 09:41:55;;;;;;;;;2.40;2.40;;;;;45.27;16.13;99355.41;6240344;28;96312;-55
2024/02/14 09:44:59;;;;;;;;;1.60;1.20;;;;;45.31;16.17;99346.75;6238168;28;96862;-59
2024/02/14 09:48:03;;;;;;;;;2.00;2.00;;;;;45.19;15.98;99354.00;6244828;27;96912;-59
2024/02/14 09:51:08;;;;;;;;;2.00;2.00;;;;;45.24;15.93;99350.63;6234733;27;96608;-59
2024/02/14 09:54:14;;;;;;;;;3.00;2.60;;;;;45.05;16.30;99354.34;6253918;27;97585;-58
2024/02/14 09:57:23;;;;;;;;;2.00;2.00;;;;;45.00;16.33;99352.00;6262437;27;96256;-59
2024/02/14 10:00:27;;;;;;;;;2.00;2.00;;;;;44.56;16.01;99350.56;6265292;27;96250;-59
2024/02/14 10:03:30;;;;;;;;;2.00;2.00;;;;;44.61;15.69;99343.53;6263160;27;96611;-60
2024/02/14 10:06:33;;;;;;;;;2.00;2.00;;;;;44.94;16.17;99338.72;6261966;27;96234;-59
2024/02/14 10:09:44;;;;;;;;;3.00;2.00;;;;;45.11;15.82;99329.00;6261958;27;96361;-59
2024/02/14 10:12:48;;;;;;;;;4.00;3.60;;;;;45.22;15.26;99330.31;6262290;27;96424;-59
2024/02/14 10:15:51;;;;;;;;;3.00;3.00;;;;;45.18;15.87;99332.47;6261965;27;96522;-60
2024/02/14 10:18:56;;;;;;;;;2.00;2.00;;;;;45.08;15.56;99332.72;6262321;27;96480;-59
2024/02/14 10:22:00;;;;;;;;;1.60;1.60;;;;;45.34;16.00;99337.34;6265005;27;96166;-59
2024/02/14 10:25:08;;;;;;;;;2.60;2.40;;;;;45.20;15.16;99327.13;6265315;27;96500;-59
2024/02/14 10:28:11;;;;;;;;;2.50;2.00;;;;;45.33;15.76;99327.22;6264465;27;96577;-59
2024/02/14 10:31:15;;;;;;;;;4.00;3.00;;;;;45.18;14.81;99326.75;6261065;27;96380;-58
2024/02/14 10:34:20;;;;;;;;;2.00;2.00;;;;;45.23;15.38;99314.84;6248641;27;96368;-58
2024/02/14 10:37:27;;;;;;;;;2.40;2.40;;;;;44.79;15.03;99315.50;6239860;27;98031;-59
2024/02/14 10:40:33;;;;;;;;;2.00;1.00;;;;;44.21;15.46;99303.75;6238500;28;96257;-59
2024/02/14 10:43:37;;;;;;;;;3.00;3.00;;;;;44.20;16.18;99304.19;6239616;28;96317;-59
2024/02/14 10:46:41;;;;;;;;;2.00;2.00;;;;;44.08;15.70;99299.19;6239374;28;96871;-59
2024/02/14 10:49:46;;;;;;;;;2.00;2.00;;;;;44.27;16.06;99299.19;6239092;28;96320;-59
2024/02/14 10:52:51;;;;;;;;;2.00;2.00;;;;;44.44;15.61;99309.38;6239533;28;96316;-55
2024/02/14 10:55:59;;;;;;;;;2.20;2.00;;;;;44.53;15.37;99316.47;6240690;28;96822;-55
2024/02/14 10:59:03;;;;;;;;;2.00;2.00;;;;;44.10;15.50;99305.22;6240866;28;96367;-55
2024/02/14 11:02:07;;;;;;;;;2.00;2.00;;;;;43.55;15.62;99298.94;6239783;28;97969;-55
2024/02/14 11:05:14;;;;;;;;;3.00;2.00;;;;;42.83;15.76;99299.75;6240591;28;96320;-56
2024/02/14 11:08:21;;;;;;;;;2.00;2.00;;;;;42.09;16.31;99293.03;6238884;27;97057;-55
2024/02/14 11:11:26;;;;;;;;;2.40;2.00;;;;;41.11;16.61;99285.13;6241821;27;96404;-55
2024/02/14 11:14:32;;;;;;;;;3.00;3.00;;;;;40.57;16.92;99295.97;6243330;28;96393;-54
2024/02/14 11:17:36;;;;;;;;;2.80;2.20;;;;;40.22;17.05;99282.84;6233380;28;97172;-54
2024/02/14 11:20:42;;;;;;;;;4.00;3.00;;;;;40.33;17.47;99277.13;6240836;28;96329;-54
2024/02/14 11:23:54;;;;;;;;;2.25;2.25;;;;;40.50;17.17;99272.59;6221375;28;96248;-54
2024/02/14 11:26:58;;;;;;;;;3.00;3.00;;;;;41.19;16.58;99266.88;6224126;28;96313;-54
2024/02/14 11:30:03;;;;;;;;;5.00;4.00;;;;;41.58;16.65;99263.69;6215360;28;96435;-54
2024/02/14 11:33:18;;;;;;;;;3.00;2.40;;;;;41.85;16.38;99261.75;6218385;28;96316;-54
2024/02/14 11:36:23;;;;;;;;;3.00;3.00;;;;;41.32;16.75;99258.66;6192881;28;96257;-55
2024/02/14 11:39:27;;;;;;;;;3.00;2.00;;;;;40.77;16.50;99247.41;6209730;28;96461;-55
2024/02/14 11:42:31;;;;;;;;;3.00;3.00;;;;;39.77;17.03;99253.56;6223318;28;96801;-55
2024/02/14 11:45:35;;;;;;;;;2.00;2.00;;;;;39.64;17.75;99243.06;6239603;28;96494;-55
2024/02/14 11:48:39;;;;;;;;;2.00;2.00;;;;;40.14;17.54;99244.50;6239540;27;96368;-55
2024/02/14 11:51:44;;;;;;;;;4.00;4.00;;;;;40.76;17.37;99246.59;6229152;28;98831;-55
2024/02/14 11:54:48;;;;;;;;;3.75;3.75;;;;;40.87;16.95;99236.00;6240411;28;96572;-55
2024/02/14 11:57:53;;;;;;;;;4.40;4.00;;;;;40.94;17.19;99240.81;6236941;28;96431;-55
2024/02/14 12:00:56;;;;;;;;;4.00;4.00;;;;;40.95;16.99;99240.41;6241617;28;96408;-55
2024/02/14 12:04:01;;;;;;;;;4.40;4.40;;;;;40.83;16.87;99246.53;6235918;28;96289;-60
2024/02/14 12:07:04;;;;;;;;;3.50;3.00;;;;;40.78;17.14;99237.69;6226553;28;96439;-60
2024/02/14 12:10:10;;;;;;;;;3.00;3.00;;;;;40.94;17.12;99240.81;6240265;28;97272;-60
2024/02/14 12:13:16;;;;;;;;;3.00;3.00;;;;;40.92;17.43;99235.56;6231862;28;96499;-60
2024/02/14 12:16:22;;;;;;;;;3.80;3.80;;;;;40.94;17.19;99229.50;6227234;28;96293;-60
2024/02/14 12:19:26;;;;;;;;;4.00;4.00;;;;;40.64;17.62;99232.97;6232352;28;98065;-59
2024/02/14 12:22:34;;;;;;;;;3.00;3.00;;;;;40.66;17.42;99227.72;6237358;28;96753;-61
2024/02/14 12:25:37;;;;;;;;;5.00;4.00;;;;;40.68;17.76;99222.44;6235000;28;96335;-62
2024/02/14 12:28:42;;;;;;;;;3.00;3.00;;;;;39.86;18.18;99218.44;6237680;28;96273;-61
2024/02/14 12:31:46;;;;;;;;;3.00;3.00;;;;;38.99;17.68;99221.84;6240030;28;96231;-62
2024/02/14 12:34:49;;;;;;;;;4.00;3.00;;;;;38.49;18.05;99220.97;6248866;27;96228;-59
2024/02/14 12:37:53;;;;;;;;;3.00;3.00;;;;;38.26;17.89;99217.69;6243016;28;96458;-61
2024/02/14 12:40:57;;;;;;;;;3.60;3.60;;;;;37.29;18.23;99215.56;6242307;28;96331;-59
2024/02/14 12:44:02;;;;;;;;;3.00;2.00;;;;;36.34;19.57;99210.75;6244038;28;96331;-60
2024/02/14 12:47:05;;;;;;;;;3.75;3.25;;;;;35.06;19.56;99216.59;6236908;28;96256;-60
2024/02/14 12:50:09;;;;;;;;;3.00;3.00;;;;;33.70;20.25;99210.84;6237064;28;96387;-60
2024/02/14 12:53:12;;;;;;;;;4.00;4.00;;;;;32.45;21.05;99212.56;6243092;28;96324;-60
2024/02/14 12:56:16;;;;;;;;;4.00;3.00;;;;;31.18;22.19;99220.78;6239678;28;96367;-59
2024/02/14 12:59:20;;;;;;;;;4.00;4.00;;;;;30.17;22.74;99221.69;6240780;28;96168;-59
2024/02/14 13:02:24;;;;;;;;;3.20;3.20;;;;;29.35;23.50;99215.84;6249255;28;96333;-59
2024/02/14 13:05:28;;;;;;;;;2.40;2.40;;;;;28.38;24.25;99226.88;6266138;28;96323;-60
2024/02/14 13:08:32;;;;;;;;;5.00;4.00;;;;;27.60;25.52;99218.97;6266085;28;96352;-59
2024/02/14 13:11:35;;;;;;;;;5.40;4.40;;;;;27.06;25.61;99230.28;6264358;27;96597;-59
2024/02/14 13:14:41;;;;;;;;;6.00;5.60;;;;;26.30;26.57;99226.00;6248878;28;96317;-59
2024/02/14 13:17:44;;;;;;;;;4.00;4.00;;;;;25.70;27.28;99220.88;6267764;27;96300;-60
2024/02/14 13:20:50;;;;;;;;;5.00;4.00;;;;;24.96;27.77;99220.31;6264530;28;96162;-60
2024/02/14 13:23:57;;;;;;;;;5.00;5.00;;;;;24.57;28.14;99231.81;6264051;28;96295;-60
2024/02/14 13:27:00;;;;;;;;;6.00;5.00;;;;;24.07;29.29;99227.22;6264556;28;97570;-60
2024/02/14 13:30:06;;;;;;;;;4.20;4.20;;;;;23.78;29.82;99223.84;6260925;27;96190;-59
2024/02/14 13:33:11;;;;;;;;;6.00;5.40;;;;;23.61;30.16;99224.38;6260475;28;96328;-59
2024/02/14 13:36:16;;;;;;;;;5.00;4.40;;;;;23.49;30.58;99219.34;6241282;28;96771;-59
2024/02/14 13:39:20;;;;;;;;;5.00;5.00;;;;;23.41;29.95;99216.41;6262274;27;96333;-59
2024/02/14 13:42:23;;;;;;;;;5.60;5.00;;;;;23.30;29.97;99213.81;6261928;27;96491;-60
2024/02/14 13:45:42;;;;;;;;;4.20;4.00;;;;;23.10;30.84;99213.25;6278687;27;96293;-59
2024/02/14 13:48:45;;;;;;;;;4.50;4.00;;;;;23.00;31.80;99222.47;6279227;27;96297;-59
2024/02/14 13:51:50;;;;;;;;;8.00;7.00;;;;;22.74;31.29;99218.38;6273768;27;96228;-58
2024/02/14 13:54:53;;;;;;;;;7.00;6.00;;;;;22.43;32.20;99217.91;6255380;28;96240;-59
2024/02/14 13:57:56;;;;;;;;;7.00;6.25;;;;;22.22;33.86;99221.94;6260495;27;96328;-59
2024/02/14 14:01:01;;;;;;;;;6.00;5.00;;;;;22.03;34.70;99213.63;6275935;27;97665;-60
2024/02/14 14:04:04;;;;;;;;;5.60;5.00;;;;;21.83;34.93;99220.06;6281958;27;96276;-59
2024/02/14 14:07:08;;;;;;;;;5.00;5.00;;;;;21.73;34.53;99216.59;6285274;27;96333;-59
2024/02/14 14:10:12;;;;;;;;;6.00;5.00;;;;;21.66;35.25;99210.59;6286160;27;96244;-59
2024/02/14 14:13:16;;;;;;;;;8.60;6.60;;;;;21.38;35.39;99215.72;6267881;27;96279;-58
2024/02/14 14:16:21;;;;;;;;;7.00;6.00;;;;;21.21;36.28;99212.53;6261200;28;96284;-59
2024/02/14 14:19:25;;;;;;;;;7.00;6.80;;;;;21.02;36.12;99217.81;6243121;28;96739;-59
2024/02/14 14:22:29;;;;;;;;;6.00;5.00;;;;;20.86;37.01;99219.00;6261203;28;96301;-58